Time;durP1;ratioP1;P1;durP2;ratioP2;P2;SDS_P1;SDS_P2;PMS_P1;PMS_P2;Temp;Humidity;BMP_temperature;BMP_pressure;BME280_temperature;BME280_humidity;BME280_pressure;Samples;Min_cycle;Max_cycle;Signal;HPM_P1;HPM_P2
2022/01/01 00:00:33;;;;;;;17.83;8.38;;;;;;;11.85;74.07;100874.13;4994935;28;20427;-78
2022/01/01 00:02:59;;;;;;;14.57;8.25;;;;;;;11.88;74.63;100877.41;5000668;28;20105;-78
2022/01/01 00:05:24;;;;;;;15.80;7.22;;;;;;;11.93;73.57;100867.09;4993512;28;20173;-79
2022/01/01 00:07:50;;;;;;;14.88;8.65;;;;;;;11.95;73.93;100865.16;4997012;28;20084;-79
2022/01/01 00:10:17;;;;;;;14.60;8.63;;;;;;;11.99;73.25;100868.44;4997028;28;20029;-80
2022/01/01 00:12:42;;;;;;;13.95;8.27;;;;;;;12.09;73.48;100871.22;4996974;28;20030;-78
2022/01/01 00:15:08;;;;;;;10.05;7.57;;;;;;;12.13;73.41;100878.94;4997207;28;20393;-78
2022/01/01 00:17:33;;;;;;;17.10;7.57;;;;;;;12.16;72.68;100869.72;4996905;28;20058;-78
2022/01/01 00:19:59;;;;;;;12.88;7.60;;;;;;;12.12;72.86;100861.03;4997040;28;20113;-78
2022/01/01 00:22:24;;;;;;;14.65;7.32;;;;;;;12.17;72.83;100871.44;4996827;28;20053;-78
2022/01/01 00:24:50;;;;;;;11.18;6.75;;;;;;;12.16;72.89;100873.28;4997399;28;20475;-78
2022/01/01 00:27:15;;;;;;;14.68;7.28;;;;;;;12.22;72.28;100877.28;4997637;28;20033;-78
2022/01/01 00:29:41;;;;;;;10.82;6.60;;;;;;;12.22;72.53;100861.13;4997427;28;20019;-78
2022/01/01 00:32:06;;;;;;;14.40;7.50;;;;;;;12.26;72.37;100866.09;4997201;28;20022;-78
2022/01/01 00:34:34;;;;;;;11.95;6.57;;;;;;;12.35;72.13;100856.41;5003557;28;20392;-79
2022/01/01 00:37:00;;;;;;;12.48;6.30;;;;;;;12.42;71.69;100865.66;5000108;28;20026;-78
2022/01/01 00:39:25;;;;;;;12.48;6.93;;;;;;;12.44;71.84;100861.88;4996627;28;20631;-78
2022/01/01 00:41:51;;;;;;;14.55;6.38;;;;;;;12.41;71.89;100848.66;4997154;28;20109;-78
2022/01/01 00:44:16;;;;;;;10.65;6.28;;;;;;;12.48;71.57;100846.25;4996808;28;20022;-78
2022/01/01 00:46:42;;;;;;;14.13;6.30;;;;;;;12.50;71.26;100852.38;4996673;28;20026;-79
2022/01/01 00:49:07;;;;;;;9.38;6.18;;;;;;;12.55;71.33;100855.53;4996778;28;20041;-79
2022/01/01 00:51:33;;;;;;;10.82;6.68;;;;;;;12.50;71.30;100857.78;4997299;28;20032;-78
2022/01/01 00:53:58;;;;;;;10.25;6.25;;;;;;;12.59;71.33;100865.09;4996538;28;20029;-78
2022/01/01 00:56:25;;;;;;;10.43;6.15;;;;;;;12.48;71.13;100846.25;4997046;28;20153;-78
2022/01/01 00:58:50;;;;;;;13.43;6.07;;;;;;;12.55;71.54;100842.03;4996614;28;20033;-79
2022/01/01 01:01:16;;;;;;;11.35;7.22;;;;;;;12.62;71.02;100848.63;4996538;28;20030;-79
2022/01/01 01:03:42;;;;;;;16.90;8.77;;;;;;;12.57;71.05;100840.06;4996600;28;20030;-79
2022/01/01 01:06:10;;;;;;;14.57;8.50;;;;;;;12.54;70.71;100837.63;4996265;28;20026;-79
2022/01/01 01:08:36;;;;;;;19.02;9.20;;;;;;;12.56;70.99;100832.97;4996442;28;20105;-80
2022/01/01 01:11:04;;;;;;;13.93;8.20;;;;;;;12.50;71.23;100828.13;4995748;28;20041;-80
2022/01/01 01:13:31;;;;;;;9.45;6.60;;;;;;;12.54;71.05;100824.13;4995668;28;20026;-78
2022/01/01 01:15:57;;;;;;;12.02;7.75;;;;;;;12.55;71.15;100821.31;4996195;28;20027;-77
2022/01/01 01:18:22;;;;;;;12.52;5.55;;;;;;;12.55;70.83;100821.31;4995387;28;20099;-78
2022/01/01 01:20:48;;;;;;;9.18;6.05;;;;;;;12.49;71.12;100823.69;4995926;28;20484;-78
2022/01/01 01:23:13;;;;;;;8.32;5.57;;;;;;;12.40;71.31;100811.00;4996288;28;20477;-78
2022/01/01 01:25:40;;;;;;;9.73;4.68;;;;;;;12.46;71.05;100815.88;4997216;28;20504;-78
2022/01/01 01:28:13;;;;;;;6.85;4.90;;;;;;;12.44;71.09;100809.75;4995546;28;20031;-78
2022/01/01 01:30:39;;;;;;;7.47;5.30;;;;;;;12.48;71.25;100812.03;4998111;28;20030;-76
2022/01/01 01:33:09;;;;;;;9.10;5.55;;;;;;;12.47;70.99;100812.19;5000339;28;20023;-78
2022/01/01 01:35:35;;;;;;;10.35;5.35;;;;;;;12.50;71.34;100817.31;5000091;28;20026;-79
2022/01/01 01:38:02;;;;;;;9.75;5.60;;;;;;;12.47;71.01;100802.25;4982944;28;20030;-78
2022/01/01 01:40:28;;;;;;;10.50;5.72;;;;;;;12.52;70.85;100804.53;4998223;28;20027;-78
2022/01/01 01:42:54;;;;;;;11.57;5.30;;;;;;;12.57;70.95;100808.53;4995669;28;20022;-79
2022/01/01 01:45:21;;;;;;;8.98;5.95;;;;;;;12.58;70.91;100804.00;4996485;28;20465;-78
2022/01/01 01:47:49;;;;;;;9.48;5.53;;;;;;;12.62;70.84;100799.22;4996757;28;20085;-78
2022/01/01 01:50:16;;;;;;;11.38;6.22;;;;;;;12.60;70.90;100793.94;4995693;28;20420;-77
2022/01/01 01:52:46;;;;;;;9.32;5.53;;;;;;;12.52;70.58;100793.75;4995549;28;20018;-78
2022/01/01 01:55:12;;;;;;;11.30;6.05;;;;;;;12.57;71.20;100788.81;4995617;28;20022;-80
2022/01/01 01:57:40;;;;;;;18.70;6.57;;;;;;;12.60;71.00;100782.31;4995281;28;20025;-78
2022/01/01 02:00:19;;;;;;;10.65;5.65;;;;;;;12.65;71.13;100774.66;4995265;28;20030;-78
2022/01/01 02:02:45;;;;;;;9.10;5.90;;;;;;;12.67;70.46;100787.03;4995221;28;20026;-78
2022/01/01 02:05:10;;;;;;;9.68;5.75;;;;;;;12.65;70.46;100778.22;4995201;28;20048;-78
2022/01/01 02:07:36;;;;;;;22.20;5.57;;;;;;;12.67;70.60;100770.81;4996356;28;20030;-78
2022/01/01 02:10:04;;;;;;;8.00;5.53;;;;;;;12.61;70.22;100763.28;4995504;28;20022;-78
2022/01/01 02:12:29;;;;;;;10.68;5.32;;;;;;;12.65;70.44;100761.16;4999553;28;20046;-78
2022/01/01 02:15:11;;;;;;;11.32;6.15;;;;;;;12.59;70.52;100757.16;5001599;28;20420;-78
2022/01/01 02:17:36;;;;;;;10.05;5.93;;;;;;;12.62;70.32;100740.72;5001953;28;20023;-79
2022/01/01 02:20:21;;;;;;;10.90;6.18;;;;;;;12.59;70.79;100740.13;4998721;28;20085;-78
2022/01/01 02:22:48;;;;;;;12.23;5.43;;;;;;;12.60;70.80;100739.13;4995710;28;20050;-78
2022/01/01 02:25:15;;;;;;;10.35;6.03;;;;;;;12.59;70.09;100735.56;4995500;28;20030;-78
2022/01/01 02:27:41;;;;;;;11.88;5.93;;;;;;;12.58;70.56;100728.47;4995078;28;20470;-78
2022/01/01 02:30:10;;;;;;;11.25;7.20;;;;;;;12.58;70.44;100723.06;4993532;28;20026;-77
2022/01/01 02:32:36;;;;;;;10.70;6.28;;;;;;;12.60;70.50;100731.88;4994380;28;20558;-79
2022/01/01 02:35:03;;;;;;;13.02;6.45;;;;;;;12.60;70.43;100731.88;4994562;28;20030;-79
2022/01/01 02:37:31;;;;;;;9.90;5.75;;;;;;;12.57;69.94;100733.00;4994796;28;20033;-79
2022/01/01 02:39:57;;;;;;;7.88;5.35;;;;;;;12.48;70.11;100732.94;4994970;28;20400;-79
2022/01/01 02:42:23;;;;;;;10.18;6.78;;;;;;;12.44;70.78;100735.09;4995158;28;20026;-79
2022/01/01 02:44:50;;;;;;;9.63;5.85;;;;;;;12.46;70.86;100735.81;4994514;28;20114;-78
2022/01/01 02:47:16;;;;;;;12.38;6.15;;;;;;;12.50;70.53;100737.25;4994549;28;20030;-78
2022/01/01 02:49:42;;;;;;;10.88;6.32;;;;;;;12.46;70.63;100733.09;4994850;28;20078;-78
2022/01/01 02:52:07;;;;;;;10.05;6.72;;;;;;;12.43;71.13;100741.47;4994569;28;20066;-77
2022/01/01 02:54:34;;;;;;;10.68;6.50;;;;;;;12.47;71.09;100731.25;4994356;28;20046;-77
2022/01/01 02:57:00;;;;;;;10.07;6.43;;;;;;;12.41;70.67;100732.66;4993854;28;20369;-78
2022/01/01 02:59:25;;;;;;;10.50;6.20;;;;;;;12.37;71.21;100730.34;4994233;28;20034;-78
2022/01/01 03:01:50;;;;;;;10.75;6.85;;;;;;;12.43;70.72;100729.81;4994241;28;20030;-79
2022/01/01 03:04:16;;;;;;;9.40;6.45;;;;;;;12.43;70.76;100741.47;4994190;28;20064;-79
2022/01/01 03:06:41;;;;;;;11.50;7.20;;;;;;;12.46;70.45;100732.25;4994362;28;20473;-79
2022/01/01 03:09:07;;;;;;;9.52;6.38;;;;;;;12.49;70.90;100729.28;4994485;28;20461;-79
2022/01/01 03:11:33;;;;;;;11.25;6.90;;;;;;;12.40;71.12;100719.28;4994222;28;20022;-79
2022/01/01 03:13:58;;;;;;;11.43;7.15;;;;;;;12.45;70.47;100726.00;4993834;28;20050;-79
2022/01/01 03:16:24;;;;;;;12.13;7.38;;;;;;;12.45;70.65;100717.03;4997933;28;20023;-79
2022/01/01 03:18:49;;;;;;;15.05;6.25;;;;;;;12.48;70.46;100727.56;4994342;28;20114;-79
2022/01/01 03:21:14;;;;;;;10.05;6.47;;;;;;;12.34;70.98;100703.66;4993888;28;20022;-79
2022/01/01 03:23:40;;;;;;;10.52;6.85;;;;;;;12.41;71.21;100721.00;4994155;28;20034;-79
2022/01/01 03:26:05;;;;;;;10.93;6.25;;;;;;;12.41;71.03;100713.78;4994339;28;20180;-79
2022/01/01 03:28:32;;;;;;;10.63;7.07;;;;;;;12.42;70.99;100706.50;4993918;28;20030;-79
2022/01/01 03:30:58;;;;;;;15.43;6.40;;;;;;;12.35;70.72;100711.59;4993897;28;20026;-79
2022/01/01 03:33:24;;;;;;;11.52;6.18;;;;;;;12.29;70.99;100705.91;4994500;28;20041;-79
2022/01/01 03:35:50;;;;;;;9.70;5.57;;;;;;;12.36;71.46;100717.84;4994610;28;20117;-78
2022/01/01 03:38:16;;;;;;;9.88;5.43;;;;;;;12.36;70.94;100720.53;4994644;28;20054;-78
2022/01/01 03:40:42;;;;;;;7.18;5.38;;;;;;;12.37;71.14;100719.56;4994722;28;20038;-79
2022/01/01 03:43:08;;;;;;;8.38;5.15;;;;;;;12.37;70.89;100724.94;4998216;28;20027;-78
2022/01/01 03:45:34;;;;;;;7.70;5.47;;;;;;;12.32;71.53;100729.91;5003289;28;20516;-79
2022/01/01 03:47:59;;;;;;;9.32;5.25;;;;;;;12.27;71.35;100721.34;4998028;28;20445;-78
2022/01/01 03:50:25;;;;;;;8.13;5.15;;;;;;;12.21;71.73;100730.81;4997803;28;20047;-78
2022/01/01 03:52:50;;;;;;;10.95;5.60;;;;;;;12.21;71.50;100729.97;4997979;28;20061;-78
2022/01/01 03:55:16;;;;;;;12.32;6.32;;;;;;;12.18;71.72;100724.84;4997943;28;20098;-78
2022/01/01 03:57:41;;;;;;;7.78;5.50;;;;;;;12.11;72.38;100718.28;4997329;28;20363;-78
2022/01/01 04:00:13;;;;;;;7.53;5.47;;;;;;;12.09;72.45;100721.09;4997718;28;20023;-78
2022/01/01 04:02:38;;;;;;;14.05;6.35;;;;;;;12.08;72.11;100723.94;4979852;28;20026;-79
2022/01/01 04:05:04;;;;;;;21.50;6.07;;;;;;;12.20;72.10;100728.28;4997335;28;20045;-79
2022/01/01 04:07:31;;;;;;;13.98;7.25;;;;;;;12.21;71.74;100728.13;4997503;28;20388;-79
2022/01/01 04:09:57;;;;;;;9.18;4.55;;;;;;;12.27;72.22;100726.72;4997056;28;20022;-78
2022/01/01 04:12:23;;;;;;;8.73;4.95;;;;;;;12.28;72.11;100710.44;4997355;28;20026;-78
2022/01/01 04:14:49;;;;;;;8.40;5.97;;;;;;;12.28;71.63;100714.97;4997198;28;20457;-78
2022/01/01 04:17:14;;;;;;;14.52;5.53;;;;;;;12.29;72.00;100722.09;4979606;28;20033;-77
2022/01/01 04:19:39;;;;;;;5.53;4.07;;;;;;;12.39;71.91;100720.25;4997264;28;20029;-78
2022/01/01 04:22:07;;;;;;;6.78;4.32;;;;;;;12.35;71.86;100716.16;4997341;28;20018;-80
2022/01/01 04:24:33;;;;;;;4.93;3.88;;;;;;;12.33;71.81;100734.28;4996749;28;20388;-79
2022/01/01 04:26:58;;;;;;;6.60;4.28;;;;;;;12.38;71.83;100732.91;4997053;28;20026;-78
2022/01/01 04:29:24;;;;;;;5.97;3.88;;;;;;;12.43;71.55;100733.38;4997315;28;20022;-77
2022/01/01 04:31:49;;;;;;;8.10;3.85;;;;;;;12.49;71.91;100730.13;4996581;28;20053;-79
2022/01/01 04:34:15;;;;;;;5.63;3.70;;;;;;;12.54;71.32;100727.00;4997463;28;20022;-79
2022/01/01 04:36:48;;;;;;;7.68;3.95;;;;;;;12.54;71.42;100735.97;4996932;28;20018;-79
2022/01/01 04:39:14;;;;;;;12.95;4.55;;;;;;;12.58;71.34;100733.84;4996744;28;20443;-79
2022/01/01 04:41:41;;;;;;;7.93;3.80;;;;;;;12.60;71.10;100736.44;4996577;28;20027;-79
2022/01/01 04:44:06;;;;;;;5.75;3.78;;;;;;;12.64;71.04;100737.84;4996841;28;20065;-78
2022/01/01 04:46:32;;;;;;;6.13;3.70;;;;;;;12.64;70.75;100746.81;4997050;28;20030;-79
2022/01/01 04:48:57;;;;;;;8.45;4.40;;;;;;;12.66;70.55;100747.53;4997095;28;20461;-79
2022/01/01 04:51:23;;;;;;;5.60;3.70;;;;;;;12.66;70.58;100752.91;5000123;28;20116;-79
2022/01/01 04:53:49;;;;;;;9.07;3.92;;;;;;;12.70;70.79;100748.97;5001765;28;20030;-79
2022/01/01 04:56:19;;;;;;;9.95;4.45;;;;;;;12.75;70.77;100757.50;4996200;28;20038;-79
2022/01/01 04:58:44;;;;;;;11.43;6.13;;;;;;;12.76;70.56;100761.91;4996583;28;20026;-79
2022/01/01 05:01:10;;;;;;;8.18;4.78;;;;;;;12.76;70.38;100742.16;4979079;28;20396;-79
2022/01/01 05:03:35;;;;;;;10.52;4.20;;;;;;;12.82;69.99;100764.06;4996500;28;20034;-79
2022/01/01 05:06:01;;;;;;;7.57;4.78;;;;;;;12.75;69.95;100746.69;4996063;28;20254;-79
2022/01/01 05:08:26;;;;;;;7.72;4.68;;;;;;;12.80;70.29;100749.88;4996172;28;20030;-79
2022/01/01 05:10:52;;;;;;;7.90;4.28;;;;;;;12.79;69.76;100748.16;4996415;28;20105;-79
2022/01/01 05:13:19;;;;;;;6.70;4.60;;;;;;;12.84;70.18;100747.75;4996369;28;20026;-79
2022/01/01 05:15:44;;;;;;;9.50;4.80;;;;;;;12.84;70.00;100745.88;4996825;28;20088;-79
2022/01/01 05:18:10;;;;;;;7.30;4.13;;;;;;;12.83;69.86;100748.75;4996750;28;20044;-78
2022/01/01 05:20:35;;;;;;;8.90;5.25;;;;;;;12.83;70.14;100749.59;5001181;28;20107;-79
2022/01/01 05:23:01;;;;;;;7.03;4.38;;;;;;;12.86;70.12;100752.03;4998456;28;20022;-78
2022/01/01 05:25:26;;;;;;;7.15;4.00;;;;;;;12.79;69.56;100741.91;4996325;28;20483;-79
2022/01/01 05:27:52;;;;;;;7.10;4.38;;;;;;;12.82;70.10;100747.88;4996911;28;20096;-78
2022/01/01 05:30:18;;;;;;;6.28;4.32;;;;;;;12.86;69.78;100752.03;4998812;28;20026;-78
2022/01/01 05:32:43;;;;;;;5.05;3.65;;;;;;;12.82;69.72;100747.03;4997633;28;20033;-77
2022/01/01 05:35:09;;;;;;;7.88;3.83;;;;;;;12.79;69.79;100740.06;5000908;28;20022;-78
2022/01/01 05:37:35;;;;;;;8.88;4.20;;;;;;;12.76;70.04;100751.13;4996444;28;20061;-79
2022/01/01 05:40:00;;;;;;;8.75;4.93;;;;;;;12.79;69.98;100742.75;4996030;28;20030;-79
2022/01/01 05:42:26;;;;;;;8.60;5.05;;;;;;;12.83;69.80;100736.09;4995967;28;20065;-78
2022/01/01 05:44:51;;;;;;;5.68;4.18;;;;;;;12.77;69.71;100723.16;4996465;28;20029;-78
2022/01/01 05:47:19;;;;;;;7.32;4.45;;;;;;;12.73;69.70;100726.25;4996240;28;20030;-78
2022/01/01 05:49:44;;;;;;;12.30;5.47;;;;;;;12.80;69.86;100730.97;4995695;28;20050;-78
2022/01/01 05:52:10;;;;;;;13.68;5.35;;;;;;;12.82;69.88;100728.13;4996582;28;20019;-78
2022/01/01 05:54:35;;;;;;;9.25;5.18;;;;;;;12.84;69.81;100731.56;4996085;28;20113;-78
2022/01/01 05:57:01;;;;;;;9.18;4.80;;;;;;;12.84;69.65;100736.97;4995720;28;20104;-78
2022/01/01 05:59:28;;;;;;;6.90;4.75;;;;;;;12.90;70.08;100742.63;4996037;28;20025;-78
2022/01/01 06:01:53;;;;;;;8.30;4.72;;;;;;;12.92;69.63;100748.78;4996261;28;20469;-78
2022/01/01 06:04:18;;;;;;;7.85;4.38;;;;;;;12.96;69.49;100743.97;4995519;28;20049;-78
2022/01/01 06:06:44;;;;;;;6.00;3.95;;;;;;;13.01;69.75;100750.66;4995609;28;20030;-77
2022/01/01 06:09:09;;;;;;;8.23;4.90;;;;;;;13.04;69.78;100753.09;4995741;28;20121;-78
2022/01/01 06:11:35;;;;;;;12.23;5.05;;;;;;;13.06;69.42;100748.38;4995911;28;20567;-77
2022/01/01 06:14:00;;;;;;;9.40;4.97;;;;;;;13.14;68.97;100753.16;4996122;28;20034;-77
2022/01/01 06:16:26;;;;;;;9.57;3.92;;;;;;;13.08;68.91;100754.56;4996107;28;20061;-79
2022/01/01 06:18:51;;;;;;;10.82;5.20;;;;;;;13.13;68.70;100762.22;4995891;28;20374;-81
2022/01/01 06:21:17;;;;;;;9.50;6.70;;;;;;;13.17;68.77;100757.41;4996030;28;20404;-78
2022/01/01 06:23:42;;;;;;;14.48;6.95;;;;;;;13.18;68.67;100754.56;4995813;28;20396;-79
2022/01/01 06:26:09;;;;;;;10.18;6.10;;;;;;;13.26;68.67;100761.97;4995728;28;20033;-78
2022/01/01 06:28:34;;;;;;;19.65;6.95;;;;;;;13.26;68.58;100768.25;5006101;28;20030;-78
2022/01/01 06:31:00;;;;;;;19.95;8.80;;;;;;;13.31;68.42;100776.78;5005249;28;20584;-78
2022/01/01 06:33:25;;;;;;;34.75;8.98;;;;;;;13.35;68.34;100774.66;4995426;28;20088;-78
2022/01/01 06:35:51;;;;;;;17.77;9.02;;;;;;;13.43;67.84;100780.22;4977414;28;20084;-78
2022/01/01 06:38:17;;;;;;;47.38;18.20;;;;;;;13.45;67.61;100783.66;4995679;28;20105;-78
2022/01/01 06:40:44;;;;;;;20.52;10.98;;;;;;;13.46;67.53;100788.03;4995500;28;20487;-79
2022/01/01 06:43:11;;;;;;;18.20;9.90;;;;;;;13.45;67.39;100805.25;4993772;28;20050;-78
2022/01/01 06:45:37;;;;;;;17.75;8.75;;;;;;;13.44;67.55;100807.09;4993909;28;20041;-78
2022/01/01 06:48:03;;;;;;;19.48;9.80;;;;;;;13.50;67.46;100802.97;4993723;28;20033;-78
2022/01/01 06:50:28;;;;;;;17.90;8.75;;;;;;;13.52;67.52;100795.59;4993523;28;20042;-78
2022/01/01 06:52:54;;;;;;;17.65;9.80;;;;;;;13.53;67.30;100811.66;4993410;28;20026;-78
2022/01/01 06:55:20;;;;;;;16.38;10.05;;;;;;;13.50;67.21;100797.56;4995089;28;20062;-79
2022/01/01 06:57:46;;;;;;;30.50;12.68;;;;;;;13.59;67.41;100807.56;4995785;28;20026;-78
2022/01/01 07:00:12;;;;;;;20.83;12.85;;;;;;;13.60;66.92;100809.28;4993090;28;20053;-78
2022/01/01 07:02:42;;;;;;;19.48;10.35;;;;;;;13.59;67.16;100807.56;4994626;28;20030;-78
2022/01/01 07:05:09;;;;;;;26.50;9.50;;;;;;;13.66;67.03;100819.53;4994582;28;20037;-78
2022/01/01 07:07:35;;;;;;;22.75;10.57;;;;;;;13.66;66.69;100822.22;4994516;28;20030;-77
2022/01/01 07:10:06;;;;;;;25.55;11.63;;;;;;;13.69;66.79;100819.25;4994914;28;20050;-78
2022/01/01 07:12:31;;;;;;;33.08;19.35;;;;;;;13.70;66.79;100814.69;4994671;28;20026;-78
2022/01/01 07:14:57;;;;;;;27.33;15.55;;;;;;;13.74;66.64;100816.09;4995006;28;20396;-78
2022/01/01 07:17:22;;;;;;;34.45;18.45;;;;;;;13.78;66.54;100810.28;4994783;28;20030;-78
2022/01/01 07:19:48;;;;;;;44.60;18.75;;;;;;;13.77;66.49;100805.00;4995397;28;20389;-77
2022/01/01 07:22:13;;;;;;;16.23;10.38;;;;;;;13.75;66.67;100802.47;4994414;28;20041;-79
2022/01/01 07:24:39;;;;;;;44.83;26.42;;;;;;;13.79;66.71;100798.47;4994773;28;20117;-79
2022/01/01 07:27:05;;;;;;;33.97;15.45;;;;;;;13.79;66.75;100801.16;4994542;28;20030;-79
2022/01/01 07:29:31;;;;;;;27.08;11.25;;;;;;;13.81;66.73;100799.19;4994433;28;20037;-78
2022/01/01 07:31:56;;;;;;;20.45;11.60;;;;;;;13.87;66.65;100795.91;4976417;28;20030;-78
2022/01/01 07:34:22;;;;;;;15.23;8.65;;;;;;;13.94;66.53;100796.22;4993763;28;20146;-78
2022/01/01 07:36:48;;;;;;;22.88;9.82;;;;;;;13.99;66.43;100800.19;4995125;28;20053;-79
2022/01/01 07:39:14;;;;;;;26.15;9.20;;;;;;;14.06;66.33;100814.00;4993758;28;20217;-78
2022/01/01 07:41:39;;;;;;;15.27;9.40;;;;;;;14.07;65.89;100813.84;4995610;28;20031;-79
2022/01/01 07:44:05;;;;;;;27.52;9.70;;;;;;;14.10;65.76;100818.97;4998358;28;20034;-80
2022/01/01 07:46:31;;;;;;;23.20;10.20;;;;;;;14.13;65.90;100813.28;4999882;28;20033;-79
2022/01/01 07:48:57;;;;;;;13.63;7.13;;;;;;;14.10;65.31;100807.28;4999491;28;20038;-79
2022/01/01 07:51:22;;;;;;;21.00;11.75;;;;;;;14.14;65.43;100815.00;4993674;28;20042;-79
2022/01/01 07:53:47;;;;;;;39.42;21.35;;;;;;;14.17;65.45;100817.41;4994281;28;20404;-79
2022/01/01 07:56:13;;;;;;;31.90;16.25;;;;;;;14.17;65.69;100825.53;4994379;28;20121;-79
2022/01/01 07:58:38;;;;;;;19.35;11.23;;;;;;;14.14;65.82;100820.41;4994041;28;20380;-79
2022/01/01 08:01:04;;;;;;;9.20;6.45;;;;;;;14.11;65.68;100820.69;4977141;28;20034;-79
2022/01/01 08:03:29;;;;;;;15.63;9.13;;;;;;;14.14;65.71;100828.50;4977024;28;20033;-78
2022/01/01 08:05:55;;;;;;;29.05;16.55;;;;;;;14.16;65.75;100823.81;5003994;28;20030;-79
2022/01/01 08:08:22;;;;;;;15.15;9.32;;;;;;;14.21;65.84;100831.50;4996817;28;20037;-79
2022/01/01 08:10:47;;;;;;;11.13;6.50;;;;;;;14.18;65.91;100832.66;4995025;28;20030;-80
2022/01/01 08:13:21;;;;;;;9.77;5.53;;;;;;;14.18;65.84;100832.66;4977805;28;20460;-79
2022/01/01 08:15:47;;;;;;;12.48;6.18;;;;;;;14.17;65.84;100836.34;4994460;28;20022;-79
2022/01/01 08:18:12;;;;;;;12.43;6.40;;;;;;;14.23;65.93;100847.56;4994264;28;20395;-79
2022/01/01 08:20:38;;;;;;;15.52;8.35;;;;;;;14.18;66.21;100854.28;4993601;28;20030;-79
2022/01/01 08:23:04;;;;;;;13.35;8.23;;;;;;;14.19;66.39;100847.88;4976048;28;20104;-80
2022/01/01 08:25:30;;;;;;;18.20;11.15;;;;;;;14.18;66.47;100845.31;4993836;28;20031;-78
2022/01/01 08:27:55;;;;;;;20.38;12.20;;;;;;;14.17;66.68;100844.47;4993974;28;20029;-79
2022/01/01 08:30:21;;;;;;;15.23;10.73;;;;;;;14.16;66.97;100840.03;4982564;28;20098;-78
2022/01/01 08:32:46;;;;;;;16.70;10.25;;;;;;;14.14;67.21;100846.59;4999860;28;20049;-79
2022/01/01 08:35:12;;;;;;;16.38;9.20;;;;;;;14.09;67.24;100829.94;4997518;28;20019;-79
2022/01/01 08:37:37;;;;;;;14.07;8.32;;;;;;;14.16;67.37;100836.47;4997335;28;20022;-78
2022/01/01 08:40:03;;;;;;;11.65;6.63;;;;;;;14.15;67.52;100843.75;4996695;28;20076;-78
2022/01/01 08:42:29;;;;;;;25.65;16.10;;;;;;;14.16;67.61;100834.63;4997170;28;20030;-78
2022/01/01 08:44:55;;;;;;;15.55;10.27;;;;;;;14.11;68.05;100823.38;4996972;28;20480;-79
2022/01/01 08:47:24;;;;;;;17.75;10.27;;;;;;;14.12;68.00;100838.63;4996699;28;20460;-77
2022/01/01 08:49:52;;;;;;;21.23;12.18;;;;;;;14.06;68.32;100830.22;4995744;28;20046;-77
2022/01/01 08:52:17;;;;;;;22.50;12.32;;;;;;;14.08;68.54;100830.94;4996041;28;20097;-78
2022/01/01 08:54:43;;;;;;;16.45;11.57;;;;;;;14.09;68.99;100825.41;4996785;28;20065;-78
2022/01/01 08:57:09;;;;;;;22.65;13.05;;;;;;;14.10;69.20;100828.94;4996328;28;20449;-78
2022/01/01 08:59:35;;;;;;;18.52;11.82;;;;;;;14.08;69.61;100823.69;4995480;28;20109;-78
2022/01/01 09:02:00;;;;;;;21.02;11.82;;;;;;;14.03;69.80;100814.28;4978633;28;20033;-78
2022/01/01 09:04:26;;;;;;;18.13;11.07;;;;;;;13.91;70.02;100807.31;4996145;28;20101;-78
2022/01/01 09:06:51;;;;;;;16.70;11.18;;;;;;;13.90;70.38;100811.00;4996772;28;20404;-78
2022/01/01 09:09:17;;;;;;;13.10;9.85;;;;;;;13.85;70.37;100814.13;4996825;28;20040;-78
2022/01/01 09:11:43;;;;;;;18.50;9.57;;;;;;;13.72;70.64;100791.94;4996086;28;20031;-77
2022/01/01 09:14:09;;;;;;;14.52;8.88;;;;;;;13.73;71.35;100792.78;4996627;28;20026;-79
2022/01/01 09:16:34;;;;;;;18.38;10.05;;;;;;;13.74;71.41;100783.66;4996125;28;20022;-78
2022/01/01 09:19:00;;;;;;;16.30;9.05;;;;;;;13.68;71.48;100795.03;4995776;28;20469;-78
2022/01/01 09:21:27;;;;;;;17.48;9.60;;;;;;;13.72;71.46;100781.13;4996009;28;20026;-78
2022/01/01 09:23:53;;;;;;;19.30;10.63;;;;;;;13.61;71.97;100786.63;4996357;28;20030;-78
2022/01/01 09:26:20;;;;;;;17.65;10.35;;;;;;;13.55;72.19;100785.34;4995947;28;20595;-78
2022/01/01 09:28:45;;;;;;;24.00;13.75;;;;;;;13.53;72.81;100775.69;4995383;28;20026;-78
2022/01/01 09:31:11;;;;;;;21.73;12.05;;;;;;;13.47;72.97;100771.69;4995895;28;20475;-79
2022/01/01 09:33:36;;;;;;;19.27;10.88;;;;;;;13.48;73.36;100780.66;4996286;28;20041;-77
2022/01/01 09:36:04;;;;;;;21.17;11.85;;;;;;;13.53;73.50;100779.25;4996478;28;20023;-78
2022/01/01 09:38:31;;;;;;;30.13;11.00;;;;;;;13.59;73.73;100781.38;4996075;28;20081;-78
2022/01/01 09:40:57;;;;;;;21.92;12.93;;;;;;;13.69;73.44;100781.41;4996869;28;20022;-78
2022/01/01 09:43:24;;;;;;;24.08;11.88;;;;;;;13.72;73.15;100773.00;5001577;28;20105;-77
2022/01/01 09:45:51;;;;;;;34.63;12.75;;;;;;;13.81;72.99;100780.25;4995837;28;20034;-78
2022/01/01 09:48:22;;;;;;;21.13;12.70;;;;;;;13.91;72.51;100775.69;4978610;28;20461;-78
2022/01/01 09:50:49;;;;;;;21.48;12.15;;;;;;;13.77;72.78;100770.72;4995671;28;20042;-80
2022/01/01 09:53:18;;;;;;;49.28;25.50;;;;;;;13.93;72.92;100762.03;4995993;28;20026;-78
2022/01/01 09:55:44;;;;;;;32.97;17.13;;;;;;;14.04;72.86;100748.38;4995531;28;20054;-80
2022/01/01 09:58:09;;;;;;;20.92;12.82;;;;;;;14.09;72.15;100751.50;4995303;28;20014;-79
2022/01/01 10:00:35;;;;;;;21.40;13.40;;;;;;;14.04;72.24;100751.94;4995225;28;20022;-80
2022/01/01 10:03:00;;;;;;;24.00;14.07;;;;;;;14.11;71.97;100761.19;4995147;28;20385;-79
2022/01/01 10:05:26;;;;;;;18.95;11.43;;;;;;;14.18;71.64;100769.56;4994980;28;20029;-80
2022/01/01 10:07:51;;;;;;;19.50;11.25;;;;;;;14.07;71.80;100775.97;4995419;28;20113;-77
2022/01/01 10:10:22;;;;;;;19.67;10.55;;;;;;;14.07;72.04;100775.97;4994503;28;20372;-79
2022/01/01 10:12:48;;;;;;;15.57;10.20;;;;;;;13.99;72.25;100773.16;4995083;28;20032;-78
2022/01/01 10:15:14;;;;;;;19.08;11.88;;;;;;;14.15;72.25;100781.53;4994815;28;20444;-78
2022/01/01 10:17:41;;;;;;;18.30;10.52;;;;;;;14.14;72.17;100777.13;4995419;28;20045;-78
2022/01/01 10:20:07;;;;;;;28.50;11.30;;;;;;;14.17;72.26;100787.66;4978053;28;20026;-78
2022/01/01 10:22:32;;;;;;;16.88;9.07;;;;;;;14.25;71.89;100788.78;4995727;28;20053;-79
2022/01/01 10:27:59;;;;;;;10.50;7.70;;;;;;;14.28;71.28;100788.50;4995629;28;20029;-77
2022/01/01 10:30:31;;;;;;;28.02;16.92;;;;;;;14.28;71.33;100783.09;4994573;28;20050;-79
2022/01/01 10:33:03;;;;;;;13.02;8.05;;;;;;;14.33;70.99;100778.97;4994835;28;20477;-80
2022/01/01 10:35:34;;;;;;;21.45;8.05;;;;;;;14.26;71.13;100783.22;4994765;28;20112;-78
2022/01/01 10:37:59;;;;;;;13.65;6.32;;;;;;;14.29;70.78;100771.25;4994854;28;20030;-80
2022/01/01 10:40:27;;;;;;;15.30;6.78;;;;;;;14.36;70.51;100775.13;4994730;28;20032;-79
2022/01/01 10:42:53;;;;;;;12.55;7.30;;;;;;;14.40;70.45;100771.16;4977440;28;20481;-79
2022/01/01 10:45:42;;;;;;;14.50;7.53;;;;;;;14.43;70.46;100762.72;4996188;28;20029;-78
2022/01/01 10:48:40;;;;;;;11.73;7.28;;;;;;;14.55;70.25;100762.41;4997485;28;20026;-78
2022/01/01 10:51:08;;;;;;;11.75;8.52;;;;;;;14.53;70.08;100758.97;4994476;28;20477;-78
2022/01/01 10:53:35;;;;;;;17.98;9.25;;;;;;;14.63;70.07;100767.06;4995013;28;20027;-78
2022/01/01 10:56:15;;;;;;;15.07;9.20;;;;;;;14.65;70.05;100773.19;4994569;28;20023;-79
2022/01/01 10:58:41;;;;;;;14.27;8.65;;;;;;;14.77;69.78;100774.72;4994741;28;20022;-79
2022/01/01 11:01:08;;;;;;;13.95;8.63;;;;;;;14.87;69.75;100777.38;4994373;28;20022;-79
2022/01/01 11:03:40;;;;;;;21.40;9.82;;;;;;;14.97;69.31;100764.66;4976937;28;20455;-79
2022/01/01 11:06:08;;;;;;;15.97;7.70;;;;;;;14.94;68.72;100771.25;4977474;28;20030;-80
2022/01/01 11:08:35;;;;;;;14.18;8.35;;;;;;;14.93;68.36;100758.69;4994834;28;20113;-79
2022/01/01 11:11:02;;;;;;;13.95;7.85;;;;;;;14.87;68.12;100751.16;4994616;28;20033;-80
2022/01/01 11:13:28;;;;;;;13.65;6.53;;;;;;;14.88;68.00;100746.59;4995072;28;20022;-77
2022/01/01 11:15:54;;;;;;;17.92;9.15;;;;;;;14.83;68.28;100741.63;4994733;28;20113;-78